createdAt,value
2023-04-28T00:01:01.075Z,100646.61
2023-04-28T00:03:28.684Z,100649.30
2023-04-28T00:05:56.585Z,100648.88
2023-04-28T00:08:27.004Z,100650.71
2023-04-28T00:10:54.607Z,100649.04
2023-04-28T00:13:22.248Z,100648.98
2023-04-28T00:15:52.994Z,100651.34
2023-04-28T00:18:21.751Z,100649.39
2023-04-28T00:20:49.517Z,100650.02
2023-04-28T00:23:17.029Z,100651.33
2023-04-28T00:25:44.532Z,100650.40
2023-04-28T00:28:16.142Z,100651.55
2023-04-28T00:30:48.996Z,100652.86
2023-04-28T00:33:16.505Z,100653.96
2023-04-28T00:35:44.169Z,100655.98
2023-04-28T00:38:12.120Z,100656.29
2023-04-28T00:40:40.392Z,100658.27
2023-04-28T00:43:07.946Z,100657.89
2023-04-28T00:45:36.226Z,100660.06
2023-04-28T00:48:04.089Z,100663.27
2023-04-28T00:50:31.863Z,100664.23
2023-04-28T00:53:00.821Z,100661.44
2023-04-28T00:55:31.809Z,100664.64
2023-04-28T00:57:59.905Z,100662.70
2023-04-28T01:00:27.482Z,100667.14
2023-04-28T01:02:57.217Z,100663.67
2023-04-28T01:05:29.596Z,100667.61
2023-04-28T01:07:57.119Z,100667.11
2023-04-28T01:10:24.602Z,100662.98
2023-04-28T01:12:52.068Z,100665.27
2023-04-28T01:15:21.470Z,100661.61
2023-04-28T01:17:49.173Z,100660.36
2023-04-28T01:20:17.172Z,100657.76
2023-04-28T01:22:45.267Z,100661.47
2023-04-28T01:25:12.926Z,100657.96
2023-04-28T01:27:40.746Z,100655.88
2023-04-28T01:30:09.180Z,100659.61
2023-04-28T01:32:36.943Z,100658.86
2023-04-28T01:35:04.777Z,100659.14
2023-04-28T01:37:32.402Z,100657.23
2023-04-28T01:39:59.924Z,100661.41
2023-04-28T01:42:27.477Z,100665.65
2023-04-28T01:44:54.961Z,100662.40
2023-04-28T01:47:23.990Z,100666.48
2023-04-28T01:49:51.686Z,100676.04
2023-04-28T01:52:21.022Z,100675.82
2023-04-28T01:54:48.522Z,100674.23
2023-04-28T01:57:17.538Z,100675.25
2023-04-28T01:59:45.795Z,100675.36
2023-04-28T02:02:13.451Z,100677.70
2023-04-28T02:04:41.091Z,100675.23
2023-04-28T02:07:08.652Z,100675.20
2023-04-28T02:09:36.508Z,100673.95
2023-04-28T02:12:04.218Z,100675.08
2023-04-28T02:14:35.542Z,100673.46
2023-04-28T02:17:05.218Z,100675.56
2023-04-28T02:19:32.757Z,100677.06
2023-04-28T02:22:00.231Z,100677.70
2023-04-28T02:24:27.717Z,100672.86
2023-04-28T02:26:55.218Z,100674.19
2023-04-28T02:29:22.781Z,100676.10
2023-04-28T02:31:50.348Z,100674.89
2023-04-28T02:34:18.650Z,100673.19
2023-04-28T02:36:46.388Z,100677.45
2023-04-28T02:39:13.942Z,100681.05
2023-04-28T02:41:41.426Z,100676.24
2023-04-28T02:44:09.150Z,100675.38
2023-04-28T02:46:36.686Z,100674.87
2023-04-28T02:49:04.703Z,100675.05
2023-04-28T02:51:32.891Z,100676.79
2023-04-28T02:54:01.179Z,100681.77
2023-04-28T02:56:32.759Z,100679.15
2023-04-28T02:59:00.366Z,100676.36
2023-04-28T03:01:27.944Z,100674.27
2023-04-28T03:03:55.780Z,100679.39
2023-04-28T03:06:23.598Z,100678.98
2023-04-28T03:08:51.139Z,100677.95
2023-04-28T03:11:18.834Z,100679.83
2023-04-28T03:13:47.007Z,100678.11
2023-04-28T03:16:14.553Z,100679.62
2023-04-28T03:18:42.127Z,100683.40
2023-04-28T03:21:09.602Z,100681.89
2023-04-28T03:23:37.071Z,100685.40
2023-04-28T03:26:04.637Z,100685.31
2023-04-28T03:28:32.256Z,100681.98
2023-04-28T03:31:00.034Z,100685.05
2023-04-28T03:33:27.529Z,100685.57
2023-04-28T03:35:55.274Z,100683.00
2023-04-28T03:38:22.822Z,100688.17
2023-04-28T03:40:50.437Z,100689.36
2023-04-28T03:43:17.992Z,100686.63
2023-04-28T03:45:46.818Z,100691.14
2023-04-28T03:48:14.468Z,100688.77
2023-04-28T03:50:43.237Z,100691.20
2023-04-28T03:53:11.450Z,100695.87
2023-04-28T03:55:38.957Z,100692.48
2023-04-28T03:58:06.409Z,100695.17
2023-04-28T04:00:33.959Z,100695.64
2023-04-28T04:03:01.800Z,100698.80
2023-04-28T04:05:29.764Z,100702.02
2023-04-28T04:07:57.973Z,100704.92
2023-04-28T04:10:25.473Z,100704.92
2023-04-28T04:12:53.001Z,100703.20
2023-04-28T04:15:20.586Z,100706.31
2023-04-28T04:17:48.199Z,100705.67
2023-04-28T04:20:15.824Z,100707.41
2023-04-28T04:22:43.347Z,100709.82
2023-04-28T04:25:10.987Z,100708.25
2023-04-28T04:27:38.456Z,100705.50
2023-04-28T04:30:07.885Z,100708.41
2023-04-28T04:32:35.472Z,100708.05
2023-04-28T04:35:03.162Z,100707.03
2023-04-28T04:37:30.776Z,100710.60
2023-04-28T04:39:58.280Z,100710.76
2023-04-28T04:42:26.224Z,100711.60
2023-04-28T04:44:53.780Z,100712.40
2023-04-28T04:47:21.350Z,100712.02
2023-04-28T04:49:50.329Z,100712.34
2023-04-28T04:52:18.830Z,100712.84
2023-04-28T04:54:46.430Z,100709.92
2023-04-28T04:57:14.178Z,100712.14
2023-04-28T04:59:41.784Z,100712.50
2023-04-28T05:02:09.439Z,100711.44
2023-04-28T05:04:37.428Z,100710.73
2023-04-28T05:07:05.487Z,100706.94
2023-04-28T05:09:33.936Z,100706.75
2023-04-28T05:12:01.670Z,100699.15
2023-04-28T05:14:29.199Z,100700.84
2023-04-28T05:16:57.019Z,100696.16
2023-04-28T05:19:24.838Z,100697.30
2023-04-28T05:21:54.624Z,100698.45
2023-04-28T05:24:25.671Z,100703.73
2023-04-28T05:26:54.185Z,100704.70
2023-04-28T05:29:21.977Z,100703.27
2023-04-28T05:31:49.744Z,100699.92
2023-04-28T05:34:17.560Z,100702.95
2023-04-28T05:36:45.786Z,100703.91
2023-04-28T05:39:13.564Z,100703.50
2023-04-28T05:41:41.936Z,100698.92
2023-04-28T05:44:11.603Z,100702.27
2023-04-28T05:46:39.238Z,100700.63
2023-04-28T05:49:09.798Z,100699.82
2023-04-28T05:51:39.724Z,100702.45
2023-04-28T05:54:07.446Z,100700.13
2023-04-28T05:56:46.922Z,100702.23
2023-04-28T05:59:18.515Z,100704.00
2023-04-28T06:01:46.657Z,100705.94
2023-04-28T06:04:17.373Z,100706.30
2023-04-28T06:06:47.826Z,100707.02
2023-04-28T06:09:15.612Z,100707.37
2023-04-28T06:11:43.932Z,100706.00
2023-04-28T06:14:11.573Z,100710.66
2023-04-28T06:16:39.245Z,100708.06
2023-04-28T06:19:06.947Z,100704.41
2023-04-28T06:21:34.504Z,100701.27
2023-04-28T06:24:02.207Z,100702.11
2023-04-28T06:26:29.782Z,100701.23
2023-04-28T06:28:57.350Z,100701.73
2023-04-28T06:31:24.920Z,100702.05
2023-04-28T06:33:52.467Z,100694.41
2023-04-28T06:36:20.860Z,100695.05
2023-04-28T06:38:49.300Z,100690.02
2023-04-28T06:41:17.849Z,100691.00
2023-04-28T06:43:46.357Z,100685.61
2023-04-28T06:46:15.077Z,100682.61
2023-04-28T06:48:43.607Z,100684.45
2023-04-28T06:51:11.645Z,100681.66
2023-04-28T06:53:39.736Z,100680.90
2023-04-28T06:56:09.253Z,100678.06
2023-04-28T06:58:53.608Z,100678.18
2023-04-28T07:01:21.405Z,100676.89
2023-04-28T07:03:51.929Z,100675.44
2023-04-28T07:06:22.458Z,100681.77
2023-04-28T07:08:51.450Z,100675.96
2023-04-28T07:11:19.337Z,100674.30
2023-04-28T07:13:49.275Z,100675.27
2023-04-28T07:16:18.348Z,100673.30
2023-04-28T07:18:46.176Z,100673.23
2023-04-28T07:21:13.765Z,100669.88
2023-04-28T07:23:42.034Z,100668.76
2023-04-28T07:26:09.869Z,100663.98
2023-04-28T07:28:37.607Z,100662.81
2023-04-28T07:31:05.478Z,100663.60
2023-04-28T07:33:33.088Z,100658.83
2023-04-28T07:36:00.966Z,100661.80
2023-04-28T07:38:29.148Z,100661.14
2023-04-28T07:40:57.181Z,100656.98
2023-04-28T07:43:24.796Z,100653.04
2023-04-28T07:45:53.026Z,100651.27
2023-04-28T07:48:21.391Z,100646.00
2023-04-28T07:50:49.314Z,100648.13
2023-04-28T07:53:17.043Z,100655.27
2023-04-28T07:55:46.179Z,100648.48
2023-04-28T07:58:13.894Z,100648.45
2023-04-28T08:00:41.670Z,100648.91
2023-04-28T08:03:09.930Z,100650.45
2023-04-28T08:05:40.249Z,100645.02
2023-04-28T08:08:08.241Z,100639.75
2023-04-28T08:10:35.958Z,100639.46
2023-04-28T08:13:03.672Z,100635.75
2023-04-28T08:15:31.379Z,100632.25
2023-04-28T08:17:59.125Z,100628.88
2023-04-28T08:20:26.853Z,100624.10
2023-04-28T08:22:54.437Z,100624.91
2023-04-28T08:25:22.384Z,100623.92
2023-04-28T08:27:49.967Z,100625.90
2023-04-28T08:30:17.835Z,100621.88
2023-04-28T08:32:46.232Z,100620.85
2023-04-28T08:35:18.392Z,100616.89
2023-04-28T08:37:51.944Z,100612.71
2023-04-28T08:40:25.071Z,100618.03
2023-04-28T08:42:56.014Z,100618.44
2023-04-28T08:45:42.895Z,100613.02
2023-04-28T08:48:32.341Z,100611.86
2023-04-28T08:51:02.234Z,100619.98
2023-04-28T08:53:30.519Z,100619.60
2023-04-28T08:55:59.674Z,100613.14
2023-04-28T08:58:29.867Z,100612.83
2023-04-28T09:00:58.104Z,100610.88
2023-04-28T09:03:28.600Z,100612.49
2023-04-28T09:05:59.731Z,100610.52
2023-04-28T09:08:38.560Z,100610.02
2023-04-28T09:11:13.582Z,100603.66
2023-04-28T09:13:51.789Z,100601.73
2023-04-28T09:16:19.480Z,100596.34
2023-04-28T09:19:03.141Z,100594.99
2023-04-28T09:22:24.993Z,100593.92
2023-04-28T09:25:11.447Z,100591.52
2023-04-28T09:27:39.014Z,100591.11
2023-04-28T09:30:07.540Z,100589.73
2023-04-28T09:32:36.556Z,100584.08
2023-04-28T09:35:09.144Z,100586.80
2023-04-28T09:37:37.714Z,100576.65
2023-04-28T09:40:07.063Z,100578.06
2023-04-28T09:45:42.687Z,100577.19
2023-04-28T09:48:11.141Z,100573.61
2023-04-28T09:50:56.603Z,100570.48
2023-04-28T09:53:41.085Z,100563.31
2023-04-28T09:56:26.025Z,100563.55
2023-04-28T09:59:03.799Z,100563.08
2023-04-28T10:01:41.657Z,100568.44
2023-04-28T10:04:13.998Z,100568.35
2023-04-28T10:06:44.952Z,100564.17
2023-04-28T10:09:18.683Z,100560.16
2023-04-28T10:11:47.369Z,100554.79
2023-04-28T10:14:27.011Z,100553.14
2023-04-28T10:16:58.101Z,100554.73
2023-04-28T10:19:25.718Z,100548.77
2023-04-28T10:22:15.577Z,100545.50
2023-04-28T10:25:10.294Z,100546.08
2023-04-28T10:27:45.721Z,100536.67
2023-04-28T10:33:10.029Z,100536.15
2023-04-28T10:35:51.973Z,100529.61
2023-04-28T10:38:28.281Z,100527.45
2023-04-28T10:41:05.478Z,100521.21
2023-04-28T10:43:50.671Z,100521.58
2023-04-28T10:46:53.475Z,100517.98
2023-04-28T10:50:03.622Z,100514.98
2023-04-28T10:52:44.294Z,100519.20
2023-04-28T10:55:41.108Z,100521.27
2023-04-28T10:58:15.304Z,100520.99
2023-04-28T11:01:04.059Z,100516.02
2023-04-28T11:03:49.518Z,100512.66
2023-04-28T11:06:28.555Z,100511.64
2023-04-28T11:09:01.774Z,100507.75
2023-04-28T11:11:40.024Z,100504.76
2023-04-28T11:14:23.937Z,100498.77
2023-04-28T11:16:59.950Z,100500.78
2023-04-28T11:19:46.773Z,100493.95
2023-04-28T11:22:19.490Z,100496.30
2023-04-28T11:25:02.290Z,100486.20
2023-04-28T11:27:33.152Z,100488.00
2023-04-28T11:30:02.229Z,100484.60
2023-04-28T11:32:45.315Z,100488.92
2023-04-28T11:35:14.760Z,100488.93
2023-04-28T11:37:42.835Z,100486.93
2023-04-28T11:40:15.525Z,100483.70
2023-04-28T11:42:49.555Z,100483.65
2023-04-28T11:45:17.901Z,100488.55
2023-04-28T11:48:33.708Z,100481.20
2023-04-28T11:51:02.225Z,100483.06
2023-04-28T11:53:47.216Z,100482.63
2023-04-28T11:56:17.770Z,100482.10
2023-04-28T11:58:45.508Z,100480.59
2023-04-28T12:01:15.714Z,100468.08
2023-04-28T12:03:50.108Z,100466.65
2023-04-28T12:06:20.392Z,100468.66
2023-04-28T12:08:48.854Z,100467.21
2023-04-28T12:11:20.082Z,100460.36
2023-04-28T12:14:05.778Z,100462.25
2023-04-28T12:16:43.961Z,100462.04
2023-04-28T12:19:21.263Z,100466.51
2023-04-28T12:22:17.633Z,100464.77
2023-04-28T12:24:46.267Z,100464.70
2023-04-28T12:27:22.635Z,100458.09
2023-04-28T12:29:56.707Z,100452.73
2023-04-28T12:32:44.122Z,100446.33
2023-04-28T12:35:12.105Z,100441.47
2023-04-28T12:37:42.149Z,100443.20
2023-04-28T12:40:10.663Z,100442.83
2023-04-28T12:42:38.341Z,100436.02
2023-04-28T12:45:07.009Z,100435.52
2023-04-28T12:47:35.367Z,100435.50
2023-04-28T12:50:03.333Z,100432.80
2023-04-28T12:52:33.724Z,100432.38
2023-04-28T12:55:04.287Z,100424.79
2023-04-28T12:57:31.925Z,100422.88
2023-04-28T12:59:59.497Z,100417.80
2023-04-28T13:02:27.734Z,100413.77
2023-04-28T13:04:55.738Z,100412.15
2023-04-28T13:07:23.514Z,100412.05
2023-04-28T13:09:51.101Z,100412.31
2023-04-28T13:12:18.857Z,100404.48
2023-04-28T13:14:47.655Z,100403.48
2023-04-28T13:17:15.403Z,100397.33
2023-04-28T13:19:43.755Z,100395.05
2023-04-28T13:22:12.189Z,100395.05
2023-04-28T13:24:39.887Z,100387.59
2023-04-28T13:27:10.895Z,100386.79
2023-04-28T13:29:38.429Z,100380.30
2023-04-28T13:32:06.685Z,100378.81
2023-04-28T13:34:34.227Z,100381.18
2023-04-28T13:37:02.067Z,100376.64
2023-04-28T13:39:29.604Z,100376.58
2023-04-28T13:41:57.073Z,100370.63
2023-04-28T13:44:24.741Z,100366.25
2023-04-28T13:46:52.880Z,100360.44
2023-04-28T13:49:20.445Z,100356.29
2023-04-28T13:51:47.920Z,100352.96
2023-04-28T13:54:15.635Z,100351.29
2023-04-28T13:56:43.199Z,100351.11
2023-04-28T13:59:10.682Z,100351.08
2023-04-28T14:01:38.173Z,100349.52
2023-04-28T14:04:05.954Z,100345.51
2023-04-28T14:06:34.852Z,100343.08
2023-04-28T14:09:03.453Z,100345.23
2023-04-28T14:11:30.964Z,100340.45
2023-04-28T14:13:58.460Z,100337.98
2023-04-28T14:16:26.296Z,100330.33
2023-04-28T14:18:53.833Z,100328.70
2023-04-28T14:21:21.396Z,100331.30
2023-04-28T14:23:49.188Z,100330.75
2023-04-28T14:26:16.801Z,100329.91
2023-04-28T14:28:44.467Z,100327.73
2023-04-28T14:31:11.988Z,100319.48
2023-04-28T14:33:39.614Z,100314.14
2023-04-28T14:36:07.350Z,100312.98
2023-04-28T14:38:34.806Z,100313.44
2023-04-28T14:41:02.292Z,100313.14
2023-04-28T14:43:29.793Z,100312.68
2023-04-28T14:45:57.492Z,100307.04
2023-04-28T14:48:25.992Z,100310.35
2023-04-28T14:50:53.625Z,100302.91
2023-04-28T14:53:21.148Z,100306.92
2023-04-28T14:55:48.670Z,100302.07
2023-04-28T14:58:17.577Z,100299.80
2023-04-28T15:00:45.084Z,100296.70
2023-04-28T15:03:12.968Z,100294.56
2023-04-28T15:05:40.582Z,100295.65
2023-04-28T15:08:08.298Z,100288.13
2023-04-28T15:10:40.226Z,100287.99
2023-04-28T15:13:07.683Z,100288.02
2023-04-28T15:15:41.839Z,100286.06
2023-04-28T15:18:09.983Z,100282.52
2023-04-28T15:20:38.265Z,100280.98
2023-04-28T15:23:05.814Z,100277.16
2023-04-28T15:25:33.342Z,100272.92
2023-04-28T15:28:03.890Z,100272.23
2023-04-28T15:30:31.494Z,100271.55
2023-04-28T15:32:59.976Z,100270.70
2023-04-28T15:35:28.896Z,100265.45
2023-04-28T15:37:58.042Z,100267.52
2023-04-28T15:40:26.522Z,100261.27
2023-04-28T15:42:53.990Z,100260.94
2023-04-28T15:45:22.180Z,100260.55
2023-04-28T15:47:50.819Z,100261.66
2023-04-28T15:50:20.147Z,100261.35
2023-04-28T15:52:50.148Z,100259.36
2023-04-28T15:55:20.945Z,100258.41
2023-04-28T15:57:49.105Z,100257.05
2023-04-28T16:00:17.010Z,100259.03
2023-04-28T16:02:46.053Z,100253.89
2023-04-28T16:05:14.136Z,100251.30
2023-04-28T16:07:43.265Z,100251.38
2023-04-28T16:10:13.039Z,100250.69
2023-04-28T16:12:41.909Z,100250.64
2023-04-28T16:15:12.419Z,100248.72
2023-04-28T16:17:40.798Z,100249.60
2023-04-28T16:20:10.193Z,100248.47
2023-04-28T16:22:40.268Z,100248.73
2023-04-28T16:25:09.151Z,100249.48
2023-04-28T16:27:38.113Z,100247.55
2023-04-28T16:30:07.303Z,100247.42
2023-04-28T16:32:38.425Z,100243.31
2023-04-28T16:35:11.215Z,100240.73
2023-04-28T16:37:40.925Z,100239.88
2023-04-28T16:40:09.239Z,100239.56
2023-04-28T16:42:36.884Z,100235.66
2023-04-28T16:45:04.785Z,100238.50
2023-04-28T16:47:33.352Z,100235.09
2023-04-28T16:50:01.049Z,100231.13
2023-04-28T16:52:28.617Z,100229.19
2023-04-28T16:54:56.331Z,100228.34
2023-04-28T16:57:23.903Z,100225.52
2023-04-28T16:59:52.100Z,100221.40
2023-04-28T17:02:19.975Z,100217.31
2023-04-28T17:04:47.539Z,100221.94
2023-04-28T17:07:15.269Z,100220.10
2023-04-28T17:09:42.822Z,100216.89
2023-04-28T17:12:10.490Z,100215.35
2023-04-28T17:14:40.365Z,100213.09
2023-04-28T17:17:08.027Z,100216.23
2023-04-28T17:19:35.612Z,100215.98
2023-04-28T17:22:03.111Z,100217.72
2023-04-28T17:24:30.681Z,100217.59
2023-04-28T17:26:59.212Z,100211.89
2023-04-28T17:29:27.062Z,100211.67
2023-04-28T17:31:54.848Z,100215.74
2023-04-28T17:34:23.184Z,100215.11
2023-04-28T17:36:50.845Z,100214.89
2023-04-28T17:39:18.357Z,100216.94
2023-04-28T17:41:46.932Z,100219.52
2023-04-28T17:44:14.432Z,100217.85
2023-04-28T17:46:42.006Z,100217.89
2023-04-28T17:49:10.925Z,100215.38
2023-04-28T17:51:38.482Z,100217.60
2023-04-28T17:54:09.299Z,100221.25
2023-04-28T17:56:38.769Z,100221.42
2023-04-28T17:59:08.198Z,100220.48
2023-04-28T18:01:36.154Z,100225.09
2023-04-28T18:04:04.030Z,100223.50
2023-04-28T18:06:31.552Z,100226.00
2023-04-28T18:08:59.113Z,100227.58
2023-04-28T18:11:27.969Z,100226.60
2023-04-28T18:13:55.724Z,100229.94
2023-04-28T18:16:23.292Z,100227.25
2023-04-28T18:18:51.316Z,100230.42
2023-04-28T18:21:18.795Z,100232.69
2023-04-28T18:23:47.013Z,100237.20
2023-04-28T18:26:14.963Z,100232.48
2023-04-28T18:28:47.991Z,100234.32
2023-04-28T18:31:16.161Z,100236.44
2023-04-28T18:33:44.880Z,100238.00
2023-04-28T18:36:12.751Z,100242.12
2023-04-28T18:38:40.251Z,100245.83
2023-04-28T18:41:16.065Z,100245.34
2023-04-28T18:43:44.522Z,100242.40
2023-04-28T18:46:12.083Z,100242.39
2023-04-28T18:48:40.019Z,100246.17
2023-04-28T18:51:07.661Z,100244.40
2023-04-28T18:53:36.168Z,100242.54
2023-04-28T18:56:03.838Z,100241.02
2023-04-28T18:58:31.449Z,100242.33
2023-04-28T19:00:59.511Z,100244.45
2023-04-28T19:03:27.178Z,100246.06
2023-04-28T19:05:54.902Z,100248.70
2023-04-28T19:08:23.310Z,100243.69
2023-04-28T19:10:50.918Z,100239.54
2023-04-28T19:13:18.381Z,100237.28
2023-04-28T19:15:46.205Z,100237.64
2023-04-28T19:18:13.761Z,100237.95
2023-04-28T19:20:42.048Z,100238.27
2023-04-28T19:23:09.711Z,100235.96
2023-04-28T19:25:37.339Z,100235.73
2023-04-28T19:28:04.995Z,100236.73
2023-04-28T19:30:32.572Z,100237.38
2023-04-28T19:33:00.157Z,100240.79
2023-04-28T19:35:27.836Z,100236.73
2023-04-28T19:37:55.928Z,100236.63
2023-04-28T19:40:23.493Z,100235.18
2023-04-28T19:42:51.133Z,100233.35
2023-04-28T19:45:19.032Z,100233.11
2023-04-28T19:47:46.912Z,100233.18
2023-04-28T19:50:14.573Z,100232.05
2023-04-28T19:52:42.052Z,100235.41
2023-04-28T19:55:11.009Z,100240.15
2023-04-28T19:57:38.965Z,100234.33
2023-04-28T20:00:10.291Z,100237.02
2023-04-28T20:02:38.100Z,100237.98
2023-04-28T20:05:07.272Z,100237.02
2023-04-28T20:07:38.950Z,100240.23
2023-04-28T20:10:06.844Z,100241.52
2023-04-28T20:12:34.392Z,100244.90
2023-04-28T20:15:01.947Z,100241.29
2023-04-28T20:17:29.561Z,100243.42
2023-04-28T20:19:57.063Z,100245.41
2023-04-28T20:22:24.639Z,100245.13
2023-04-28T20:24:52.119Z,100245.19
2023-04-28T20:27:19.719Z,100243.88
2023-04-28T20:29:47.916Z,100241.67
2023-04-28T20:32:15.451Z,100245.55
2023-04-28T20:34:43.307Z,100246.99
2023-04-28T20:37:11.690Z,100243.77
2023-04-28T20:39:39.253Z,100245.02
2023-04-28T20:42:07.185Z,100246.27
2023-04-28T20:44:35.795Z,100250.30
2023-04-28T20:47:03.359Z,100250.36
2023-04-28T20:49:30.998Z,100248.31
2023-04-28T20:52:05.945Z,100245.59
2023-04-28T20:54:36.745Z,100241.63
2023-04-28T20:57:04.951Z,100242.71
2023-04-28T20:59:33.254Z,100246.91
2023-04-28T21:02:00.984Z,100243.46
2023-04-28T21:04:28.771Z,100245.74
2023-04-28T21:06:56.347Z,100245.27
2023-04-28T21:09:25.083Z,100240.61
2023-04-28T21:11:53.011Z,100242.89
2023-04-28T21:14:21.713Z,100240.48
2023-04-28T21:16:49.368Z,100237.40
2023-04-28T21:19:17.485Z,100237.09
2023-04-28T21:21:45.400Z,100238.48
2023-04-28T21:24:13.706Z,100231.20
2023-04-28T21:26:41.264Z,100228.98
2023-04-28T21:29:09.022Z,100227.63
2023-04-28T21:31:37.320Z,100225.90
2023-04-28T21:34:05.203Z,100225.09
2023-04-28T21:36:33.519Z,100226.66
2023-04-28T21:39:01.294Z,100215.44
2023-04-28T21:41:28.770Z,100217.39
2023-04-28T21:43:56.735Z,100217.92
2023-04-28T21:46:24.286Z,100219.35
2023-04-28T21:48:51.835Z,100216.95
2023-04-28T21:51:19.406Z,100212.64
2023-04-28T21:53:46.869Z,100209.20
2023-04-28T21:56:16.098Z,100210.80
2023-04-28T21:58:43.605Z,100211.54
2023-04-28T22:01:15.465Z,100204.84
2023-04-28T22:03:44.540Z,100206.77
2023-04-28T22:06:13.558Z,100202.11
2023-04-28T22:08:41.069Z,100201.45
2023-04-28T22:11:09.511Z,100195.91
2023-04-28T22:13:37.057Z,100196.98
2023-04-28T22:16:05.914Z,100197.19
2023-04-28T22:18:33.467Z,100194.45
2023-04-28T22:21:01.480Z,100193.78
2023-04-28T22:23:29.111Z,100187.59
2023-04-28T22:25:59.602Z,100190.41
2023-04-28T22:28:27.454Z,100186.30
2023-04-28T22:30:55.470Z,100183.94
2023-04-28T22:33:22.970Z,100182.23
2023-04-28T22:35:50.829Z,100181.58
2023-04-28T22:38:18.565Z,100179.02
2023-04-28T22:40:46.078Z,100177.87
2023-04-28T22:43:13.578Z,100174.45
2023-04-28T22:45:45.822Z,100172.24
2023-04-28T22:48:14.280Z,100166.71
2023-04-28T22:50:41.982Z,100170.06
2023-04-28T22:53:09.552Z,100171.31
2023-04-28T22:55:37.380Z,100166.99
2023-04-28T22:58:05.357Z,100167.55
2023-04-28T23:00:33.671Z,100160.82
2023-04-28T23:03:01.486Z,100155.32
2023-04-28T23:05:29.041Z,100153.10
2023-04-28T23:07:56.601Z,100150.19
2023-04-28T23:10:24.166Z,100150.55
2023-04-28T23:12:51.684Z,100146.40
2023-04-28T23:15:19.282Z,100145.73
2023-04-28T23:17:46.858Z,100145.06
2023-04-28T23:20:14.942Z,100144.38
2023-04-28T23:22:42.480Z,100141.13
2023-04-28T23:25:10.251Z,100140.61
2023-04-28T23:27:37.821Z,100136.67
2023-04-28T23:30:06.083Z,100135.13
2023-04-28T23:32:33.630Z,100132.02
2023-04-28T23:35:01.930Z,100125.46
2023-04-28T23:37:29.423Z,100121.51
2023-04-28T23:39:57.040Z,100116.34
2023-04-28T23:42:24.688Z,100115.50
2023-04-28T23:44:53.998Z,100112.77
2023-04-28T23:47:27.408Z,100107.75
2023-04-28T23:50:00.626Z,100100.13
2023-04-28T23:52:52.235Z,100097.89
2023-04-28T23:55:24.998Z,100091.14
2023-04-28T23:57:52.781Z,100090.81
